PWSweather.com
Personal Weather Stations
Station Observations
EA5BZ
Nuevo Altabix, ElcheES

Nuevo AltabixElcheES

Lat: 38.276, Lon: -0.671

Elevation: 0

Station Type: Davis Vantage Pro 2

http://meteoelche.es

High Low Average
Temperature 59.4°F15.2°C 47.5°F8.6°C 53.9°F12.2°C
Dew Point 49.7°F9.8°C 43.5°F6.4°C 46.7°F8.2°C
Winds 11.9 mph 19.2 kmh Calm Calm 5.0 mph SW8.0 kmh SW
Wind Gusts 17.4 mph28.0 kmh -- 8.0 mph12.9 kmh
Humidity 86% 62% 77%
Pressure 30.35 in1027.8 mb 30.30 in1026.1 mb -
Precipitation 0.00 in0.0 mm - -
Hour Temp Dew Point Humidity Winds Wind Gusts Pressure Precip Precip Rate Daily Precip Total
12:00 AM 53.4°F11.9°C 47.8°F8.8°C 81% 4.7 mph W7.6 kmh W 5.4 mph8.7 kmh 30.32 in1026.8 mb 0.00 in0.0 mm 0.00 in0.0 mm 0.00 in0.0 mm
12:05 AM 53.3°F11.8°C 47.9°F8.8°C 82% 4.5 mph W7.2 kmh W 5.8 mph9.3 kmh 30.32 in1026.8 mb 0.00 in0.0 mm 0.00 in0.0 mm 0.00 in0.0 mm
12:10 AM 53.2°F11.8°C 47.9°F8.8°C 82% 4.0 mph W6.4 kmh W 6.3 mph10.1 kmh 30.32 in1026.8 mb 0.00 in0.0 mm 0.00 in0.0 mm 0.00 in0.0 mm
12:15 AM 53.2°F11.8°C 47.9°F8.8°C 82% 4.3 mph W6.9 kmh W 6.3 mph10.1 kmh 30.32 in1026.8 mb 0.00 in0.0 mm 0.00 in0.0 mm 0.00 in0.0 mm
12:20 AM 53.2°F11.8°C 47.9°F8.8°C 82% 5.1 mph W8.2 kmh W 5.8 mph9.3 kmh 30.32 in1026.8 mb 0.00 in0.0 mm 0.00 in0.0 mm 0.00 in0.0 mm
12:25 AM 53.1°F11.7°C 47.8°F8.8°C 82% 5.0 mph W8.0 kmh W 6.9 mph11.1 kmh 30.32 in1026.8 mb 0.00 in0.0 mm 0.00 in0.0 mm 0.00 in0.0 mm
12:30 AM 53.1°F11.7°C 47.7°F8.7°C 82% 4.7 mph WSW7.6 kmh WSW 5.8 mph9.3 kmh 30.32 in1026.8 mb 0.00 in0.0 mm 0.00 in0.0 mm 0.00 in0.0 mm
12:35 AM 53.1°F11.7°C 47.7°F8.7°C 82% 4.7 mph WSW7.6 kmh WSW 6.3 mph10.1 kmh 30.32 in1026.8 mb 0.00 in0.0 mm 0.00 in0.0 mm 0.00 in0.0 mm
12:40 AM 53.0°F11.7°C 47.7°F8.7°C 82% 4.7 mph WSW7.6 kmh WSW 6.3 mph10.1 kmh 30.31 in1026.4 mb 0.00 in0.0 mm 0.00 in0.0 mm 0.00 in0.0 mm
12:45 AM 52.9°F11.6°C 47.6°F8.7°C 82% 4.6 mph W7.4 kmh W 5.8 mph9.3 kmh 30.31 in1026.4 mb 0.00 in0.0 mm 0.00 in0.0 mm 0.00 in0.0 mm
12:50 AM 52.9°F11.6°C 47.5°F8.6°C 82% 4.3 mph W6.9 kmh W 5.4 mph8.7 kmh 30.31 in1026.4 mb 0.00 in0.0 mm 0.00 in0.0 mm 0.00 in0.0 mm
12:55 AM 52.9°F11.6°C 47.5°F8.6°C 82% 4.2 mph W6.8 kmh W 5.4 mph8.7 kmh 30.31 in1026.4 mb 0.00 in0.0 mm 0.00 in0.0 mm 0.00 in0.0 mm
01:00 AM 52.9°F11.6°C 47.5°F8.6°C 82% 4.0 mph WSW6.4 kmh WSW 7.4 mph11.9 kmh 30.31 in1026.4 mb 0.00 in0.0 mm 0.00 in0.0 mm 0.00 in0.0 mm
01:05 AM 52.9°F11.6°C 47.8°F8.8°C 83% 4.3 mph WSW6.9 kmh WSW 7.4 mph11.9 kmh 30.31 in1026.4 mb 0.00 in0.0 mm 0.00 in0.0 mm 0.00 in0.0 mm
01:10 AM 52.9°F11.6°C 47.9°F8.8°C 83% 5.1 mph W8.2 kmh W 8.1 mph13.0 kmh 30.30 in1026.1 mb 0.00 in0.0 mm 0.00 in0.0 mm 0.00 in0.0 mm
01:15 AM 52.9°F11.6°C 47.9°F8.8°C 83% 5.3 mph W8.5 kmh W 6.9 mph11.1 kmh 30.30 in1026.1 mb 0.00 in0.0 mm 0.00 in0.0 mm 0.00 in0.0 mm
01:20 AM 53.0°F11.7°C 48.0°F8.9°C 83% 5.8 mph W9.3 kmh W 6.9 mph11.1 kmh 30.30 in1026.1 mb 0.00 in0.0 mm 0.00 in0.0 mm 0.00 in0.0 mm
01:25 AM 53.0°F11.7°C 48.0°F8.9°C 83% 5.7 mph W9.2 kmh W 7.4 mph11.9 kmh 30.30 in1026.1 mb 0.00 in0.0 mm 0.00 in0.0 mm 0.00 in0.0 mm
01:30 AM 53.1°F11.7°C 48.0°F8.9°C 83% 5.4 mph WSW8.7 kmh WSW 7.4 mph11.9 kmh 30.30 in1026.1 mb 0.00 in0.0 mm 0.00 in0.0 mm 0.00 in0.0 mm
01:35 AM 53.1°F11.7°C 48.0°F8.9°C 83% 5.3 mph WSW8.5 kmh WSW 7.4 mph11.9 kmh 30.30 in1026.1 mb 0.00 in0.0 mm 0.00 in0.0 mm 0.00 in0.0 mm
01:40 AM 53.1°F11.7°C 48.0°F8.9°C 83% 5.1 mph W8.2 kmh W 7.4 mph11.9 kmh 30.30 in1026.1 mb 0.00 in0.0 mm 0.00 in0.0 mm 0.00 in0.0 mm
01:45 AM 53.1°F11.7°C 47.7°F8.7°C 82% 5.2 mph W8.4 kmh W 8.5 mph13.7 kmh 30.30 in1026.1 mb 0.00 in0.0 mm 0.00 in0.0 mm 0.00 in0.0 mm
01:50 AM 53.0°F11.7°C 47.7°F8.7°C 82% 5.4 mph WSW8.7 kmh WSW 8.7 mph14.0 kmh 30.30 in1026.1 mb 0.00 in0.0 mm 0.00 in0.0 mm 0.00 in0.0 mm
01:55 AM 53.0°F11.7°C 47.6°F8.7°C 82% 5.4 mph WSW8.7 kmh WSW 6.5 mph10.5 kmh 30.30 in1026.1 mb 0.00 in0.0 mm 0.00 in0.0 mm 0.00 in0.0 mm
02:00 AM 52.9°F11.6°C 47.5°F8.6°C 82% 5.4 mph W8.7 kmh W 7.4 mph11.9 kmh 30.30 in1026.1 mb 0.00 in0.0 mm 0.00 in0.0 mm 0.00 in0.0 mm
02:05 AM 52.9°F11.6°C 47.5°F8.6°C 82% 5.3 mph WSW8.5 kmh WSW 7.4 mph11.9 kmh 30.30 in1026.1 mb 0.00 in0.0 mm 0.00 in0.0 mm 0.00 in0.0 mm
02:10 AM 52.8°F11.6°C 47.5°F8.6°C 82% 5.1 mph WSW8.2 kmh WSW 7.6 mph12.2 kmh 30.30 in1026.1 mb 0.00 in0.0 mm 0.00 in0.0 mm 0.00 in0.0 mm
02:15 AM 52.6°F11.4°C 47.3°F8.5°C 82% 5.2 mph WSW8.4 kmh WSW 8.5 mph13.7 kmh 30.30 in1026.1 mb 0.00 in0.0 mm 0.00 in0.0 mm 0.00 in0.0 mm
02:20 AM 52.5°F11.4°C 47.2°F8.4°C 82% 5.4 mph WSW8.7 kmh WSW 9.6 mph15.4 kmh 30.30 in1026.1 mb 0.00 in0.0 mm 0.00 in0.0 mm 0.00 in0.0 mm
02:25 AM 52.5°F11.4°C 47.0°F8.3°C 82% 5.6 mph WSW9.0 kmh WSW 8.7 mph14.0 kmh 30.30 in1026.1 mb 0.00 in0.0 mm 0.00 in0.0 mm 0.00 in0.0 mm
02:30 AM 52.3°F11.3°C 46.7°F8.2°C 81% 6.5 mph W10.5 kmh W 11.4 mph18.3 kmh 30.30 in1026.1 mb 0.00 in0.0 mm 0.00 in0.0 mm 0.00 in0.0 mm
02:35 AM 52.3°F11.3°C 46.6°F8.1°C 81% 6.7 mph WSW10.8 kmh WSW 10.3 mph16.6 kmh 30.30 in1026.1 mb 0.00 in0.0 mm 0.00 in0.0 mm 0.00 in0.0 mm
02:40 AM 52.2°F11.2°C 46.5°F8.1°C 81% 7.6 mph WSW12.2 kmh WSW 12.3 mph19.8 kmh 30.31 in1026.4 mb 0.00 in0.0 mm 0.00 in0.0 mm 0.00 in0.0 mm
02:45 AM 52.0°F11.1°C 46.4°F8.0°C 81% 7.5 mph WSW12.1 kmh WSW 9.2 mph14.8 kmh 30.31 in1026.4 mb 0.00 in0.0 mm 0.00 in0.0 mm 0.00 in0.0 mm
02:50 AM 51.8°F11.0°C 46.2°F7.9°C 81% 6.9 mph WSW11.1 kmh WSW 8.7 mph14.0 kmh 30.31 in1026.4 mb 0.00 in0.0 mm 0.00 in0.0 mm 0.00 in0.0 mm
02:55 AM 51.6°F10.9°C 46.0°F7.8°C 81% 6.7 mph WSW10.8 kmh WSW 7.6 mph12.2 kmh 30.31 in1026.4 mb 0.00 in0.0 mm 0.00 in0.0 mm 0.00 in0.0 mm
03:00 AM 51.5°F10.8°C 45.9°F7.7°C 81% 5.8 mph W9.3 kmh W 9.2 mph14.8 kmh 30.31 in1026.4 mb 0.00 in0.0 mm 0.00 in0.0 mm 0.00 in0.0 mm
03:05 AM 51.3°F10.7°C 45.7°F7.6°C 81% 6.1 mph W9.8 kmh W 11.4 mph18.3 kmh 30.31 in1026.4 mb 0.00 in0.0 mm 0.00 in0.0 mm 0.00 in0.0 mm
03:10 AM 51.2°F10.7°C 45.9°F7.7°C 82% 6.9 mph WSW11.1 kmh WSW 10.7 mph17.2 kmh 30.31 in1026.4 mb 0.00 in0.0 mm 0.00 in0.0 mm 0.00 in0.0 mm
03:15 AM 51.1°F10.6°C 45.8°F7.7°C 82% 7.2 mph WSW11.6 kmh WSW 11.2 mph18.0 kmh 30.31 in1026.4 mb 0.00 in0.0 mm 0.00 in0.0 mm 0.00 in0.0 mm
03:20 AM 50.8°F10.4°C 45.5°F7.5°C 82% 8.1 mph WSW13.0 kmh WSW 11.4 mph18.3 kmh 30.31 in1026.4 mb 0.00 in0.0 mm 0.00 in0.0 mm 0.00 in0.0 mm
03:25 AM 50.7°F10.4°C 45.4°F7.4°C 82% 8.1 mph WSW13.0 kmh WSW 10.3 mph16.6 kmh 30.31 in1026.4 mb 0.00 in0.0 mm 0.00 in0.0 mm 0.00 in0.0 mm
03:30 AM 50.5°F10.3°C 45.2°F7.3°C 82% 8.1 mph WSW13.0 kmh WSW 10.3 mph16.6 kmh 30.31 in1026.4 mb 0.00 in0.0 mm 0.00 in0.0 mm 0.00 in0.0 mm
03:35 AM 50.4°F10.2°C 45.1°F7.3°C 82% 7.9 mph WSW12.7 kmh WSW 10.1 mph16.3 kmh 30.31 in1026.4 mb 0.00 in0.0 mm 0.00 in0.0 mm 0.00 in0.0 mm
03:40 AM 50.2°F10.1°C 45.0°F7.2°C 82% 7.4 mph WSW11.9 kmh WSW 9.2 mph14.8 kmh 30.32 in1026.8 mb 0.00 in0.0 mm 0.00 in0.0 mm 0.00 in0.0 mm
03:45 AM 50.0°F10.0°C 45.0°F7.2°C 83% 7.2 mph WSW11.6 kmh WSW 11.2 mph18.0 kmh 30.32 in1026.8 mb 0.00 in0.0 mm 0.00 in0.0 mm 0.00 in0.0 mm
03:50 AM 49.8°F9.9°C 44.9°F7.2°C 83% 6.5 mph WSW10.5 kmh WSW 9.6 mph15.4 kmh 30.32 in1026.8 mb 0.00 in0.0 mm 0.00 in0.0 mm 0.00 in0.0 mm
03:55 AM 49.7°F9.8°C 44.7°F7.1°C 83% 6.4 mph WSW10.3 kmh WSW 8.7 mph14.0 kmh 30.31 in1026.4 mb 0.00 in0.0 mm 0.00 in0.0 mm 0.00 in0.0 mm
04:00 AM 49.6°F9.8°C 44.7°F7.1°C 83% 6.3 mph WSW10.1 kmh WSW 7.6 mph12.2 kmh 30.31 in1026.4 mb 0.00 in0.0 mm 0.00 in0.0 mm 0.00 in0.0 mm
04:05 AM 49.5°F9.7°C 44.5°F6.9°C 83% 6.3 mph WSW10.1 kmh WSW 9.6 mph15.4 kmh 30.31 in1026.4 mb 0.00 in0.0 mm 0.00 in0.0 mm 0.00 in0.0 mm
04:10 AM 49.3°F9.6°C 44.4°F6.9°C 83% 6.3 mph WSW10.1 kmh WSW 10.7 mph17.2 kmh 30.31 in1026.4 mb 0.00 in0.0 mm 0.00 in0.0 mm 0.00 in0.0 mm
04:15 AM 49.2°F9.6°C 44.5°F6.9°C 84% 6.5 mph WSW10.5 kmh WSW 10.7 mph17.2 kmh 30.31 in1026.4 mb 0.00 in0.0 mm 0.00 in0.0 mm 0.00 in0.0 mm
04:20 AM 49.0°F9.4°C 44.4°F6.9°C 84% 7.4 mph WSW11.9 kmh WSW 13.4 mph21.6 kmh 30.31 in1026.4 mb 0.00 in0.0 mm 0.00 in0.0 mm 0.00 in0.0 mm
04:25 AM 48.9°F9.4°C 44.3°F6.8°C 84% 7.6 mph WSW12.2 kmh WSW 12.3 mph19.8 kmh 30.31 in1026.4 mb 0.00 in0.0 mm 0.00 in0.0 mm 0.00 in0.0 mm
04:30 AM 48.8°F9.3°C 44.2°F6.8°C 84% 8.5 mph WSW13.7 kmh WSW 13.4 mph21.6 kmh 30.31 in1026.4 mb 0.00 in0.0 mm 0.00 in0.0 mm 0.00 in0.0 mm
04:35 AM 48.7°F9.3°C 44.3°F6.8°C 85% 8.9 mph WSW14.3 kmh WSW 14.1 mph22.7 kmh 30.31 in1026.4 mb 0.00 in0.0 mm 0.00 in0.0 mm 0.00 in0.0 mm
04:40 AM 48.7°F9.3°C 44.4°F6.9°C 85% 10.3 mph WSW16.6 kmh WSW 12.5 mph20.1 kmh 30.31 in1026.4 mb 0.00 in0.0 mm 0.00 in0.0 mm 0.00 in0.0 mm
04:45 AM 48.6°F9.2°C 44.3°F6.8°C 85% 10.0 mph WSW16.1 kmh WSW 15.7 mph25.3 kmh 30.31 in1026.4 mb 0.00 in0.0 mm 0.00 in0.0 mm 0.00 in0.0 mm
04:50 AM 48.6°F9.2°C 44.3°F6.8°C 85% 9.2 mph WSW14.8 kmh WSW 13.0 mph20.9 kmh 30.31 in1026.4 mb 0.00 in0.0 mm 0.00 in0.0 mm 0.00 in0.0 mm
04:55 AM 48.5°F9.2°C 44.2°F6.8°C 85% 9.2 mph WSW14.8 kmh WSW 11.9 mph19.2 kmh 30.30 in1026.1 mb 0.00 in0.0 mm 0.00 in0.0 mm 0.00 in0.0 mm
05:00 AM 48.4°F9.1°C 44.1°F6.7°C 85% 9.2 mph WSW14.8 kmh WSW 13.0 mph20.9 kmh 30.30 in1026.1 mb 0.00 in0.0 mm 0.00 in0.0 mm 0.00 in0.0 mm
05:05 AM 48.4°F9.1°C 44.1°F6.7°C 85% 9.2 mph WSW14.8 kmh WSW 13.0 mph20.9 kmh 30.30 in1026.1 mb 0.00 in0.0 mm 0.00 in0.0 mm 0.00 in0.0 mm
05:10 AM 48.2°F9.0°C 43.9°F6.6°C 85% 9.2 mph WSW14.8 kmh WSW 12.5 mph20.1 kmh 30.30 in1026.1 mb 0.00 in0.0 mm 0.00 in0.0 mm 0.00 in0.0 mm
05:15 AM 48.1°F8.9°C 43.9°F6.6°C 85% 9.1 mph WSW14.6 kmh WSW 12.5 mph20.1 kmh 30.30 in1026.1 mb 0.00 in0.0 mm 0.00 in0.0 mm 0.00 in0.0 mm
05:20 AM 48.0°F8.9°C 43.9°F6.6°C 86% 8.7 mph WSW14.0 kmh WSW 13.4 mph21.6 kmh 30.30 in1026.1 mb 0.00 in0.0 mm 0.00 in0.0 mm 0.00 in0.0 mm
05:25 AM 48.0°F8.9°C 44.0°F6.7°C 86% 8.8 mph WSW14.2 kmh WSW 12.3 mph19.8 kmh 30.30 in1026.1 mb 0.00 in0.0 mm 0.00 in0.0 mm 0.00 in0.0 mm
05:30 AM 48.0°F8.9°C 44.0°F6.7°C 86% 9.2 mph WSW14.8 kmh WSW 12.3 mph19.8 kmh 30.30 in1026.1 mb 0.00 in0.0 mm 0.00 in0.0 mm 0.00 in0.0 mm
05:35 AM 48.0°F8.9°C 44.0°F6.7°C 86% 9.1 mph WSW14.6 kmh WSW 13.6 mph21.9 kmh 30.30 in1026.1 mb 0.00 in0.0 mm 0.00 in0.0 mm 0.00 in0.0 mm
05:40 AM 48.0°F8.9°C 44.0°F6.7°C 86% 8.7 mph WSW14.0 kmh WSW 14.8 mph23.8 kmh 30.30 in1026.1 mb 0.00 in0.0 mm 0.00 in0.0 mm 0.00 in0.0 mm
05:45 AM 47.9°F8.8°C 43.9°F6.6°C 86% 9.0 mph WSW14.5 kmh WSW 15.9 mph25.6 kmh 30.30 in1026.1 mb 0.00 in0.0 mm 0.00 in0.0 mm 0.00 in0.0 mm
05:50 AM 47.8°F8.8°C 43.9°F6.6°C 86% 10.1 mph WSW16.3 kmh WSW 16.3 mph26.2 kmh 30.30 in1026.1 mb 0.00 in0.0 mm 0.00 in0.0 mm 0.00 in0.0 mm
05:55 AM 47.8°F8.8°C 43.9°F6.6°C 86% 10.5 mph WSW16.9 kmh WSW 16.8 mph27.0 kmh 30.30 in1026.1 mb 0.00 in0.0 mm 0.00 in0.0 mm 0.00 in0.0 mm
06:00 AM 47.7°F8.7°C 43.7°F6.5°C 86% 11.9 mph WSW19.2 kmh WSW 17.4 mph28.0 kmh 30.30 in1026.1 mb 0.00 in0.0 mm 0.00 in0.0 mm 0.00 in0.0 mm
06:05 AM 47.7°F8.7°C 43.7°F6.5°C 86% 11.9 mph WSW19.2 kmh WSW 15.9 mph25.6 kmh 30.30 in1026.1 mb 0.00 in0.0 mm 0.00 in0.0 mm 0.00 in0.0 mm
06:10 AM 47.6°F8.7°C 43.6°F6.4°C 86% 11.9 mph WSW19.2 kmh WSW 14.8 mph23.8 kmh 30.30 in1026.1 mb 0.00 in0.0 mm 0.00 in0.0 mm 0.00 in0.0 mm
06:15 AM 47.5°F8.6°C 43.5°F6.4°C 86% 11.7 mph WSW18.8 kmh WSW 14.5 mph23.3 kmh 30.30 in1026.1 mb 0.00 in0.0 mm 0.00 in0.0 mm 0.00 in0.0 mm
06:20 AM 47.5°F8.6°C 43.5°F6.4°C 86% 11.2 mph WSW18.0 kmh WSW 14.1 mph22.7 kmh 30.30 in1026.1 mb 0.00 in0.0 mm 0.00 in0.0 mm 0.00 in0.0 mm
06:25 AM 47.5°F8.6°C 43.5°F6.4°C 86% 11.1 mph WSW17.9 kmh WSW 14.8 mph23.8 kmh 30.30 in1026.1 mb 0.00 in0.0 mm 0.00 in0.0 mm 0.00 in0.0 mm
06:30 AM 47.5°F8.6°C 43.5°F6.4°C 86% 10.7 mph WSW17.2 kmh WSW 15.9 mph25.6 kmh 30.30 in1026.1 mb 0.00 in0.0 mm 0.00 in0.0 mm 0.00 in0.0 mm
06:35 AM 47.5°F8.6°C 43.5°F6.4°C 86% 10.8 mph WSW17.4 kmh WSW 14.1 mph22.7 kmh 30.30 in1026.1 mb 0.00 in0.0 mm 0.00 in0.0 mm 0.00 in0.0 mm
06:40 AM 47.5°F8.6°C 43.5°F6.4°C 86% 11.2 mph WSW18.0 kmh WSW 14.5 mph23.3 kmh 30.30 in1026.1 mb 0.00 in0.0 mm 0.00 in0.0 mm 0.00 in0.0 mm
06:45 AM 47.5°F8.6°C 43.5°F6.4°C 86% 10.9 mph WSW17.5 kmh WSW 14.8 mph23.8 kmh 30.30 in1026.1 mb 0.00 in0.0 mm 0.00 in0.0 mm 0.00 in0.0 mm
06:50 AM 47.5°F8.6°C 43.5°F6.4°C 86% 10.1 mph WSW16.3 kmh WSW 13.0 mph20.9 kmh 30.30 in1026.1 mb 0.00 in0.0 mm 0.00 in0.0 mm 0.00 in0.0 mm
06:55 AM 47.5°F8.6°C 43.5°F6.4°C 86% 10.1 mph WSW16.3 kmh WSW 14.1 mph22.7 kmh 30.30 in1026.1 mb 0.00 in0.0 mm 0.00 in0.0 mm 0.00 in0.0 mm
07:00 AM 47.6°F8.7°C 43.6°F6.4°C 86% 10.3 mph WSW16.6 kmh WSW 14.8 mph23.8 kmh 30.30 in1026.1 mb 0.00 in0.0 mm 0.00 in0.0 mm 0.00 in0.0 mm
07:05 AM 47.7°F8.7°C 43.7°F6.5°C 86% 10.2 mph WSW16.4 kmh WSW 13.6 mph21.9 kmh 30.30 in1026.1 mb 0.00 in0.0 mm 0.00 in0.0 mm 0.00 in0.0 mm
07:10 AM 47.7°F8.7°C 43.7°F6.5°C 86% 10.1 mph WSW16.3 kmh WSW 13.6 mph21.9 kmh 30.31 in1026.4 mb 0.00 in0.0 mm 0.00 in0.0 mm 0.00 in0.0 mm
07:15 AM 47.7°F8.7°C 43.7°F6.5°C 86% 9.8 mph WSW15.8 kmh WSW 10.1 mph16.3 kmh 30.31 in1026.4 mb 0.00 in0.0 mm 0.00 in0.0 mm 0.00 in0.0 mm
07:20 AM 47.7°F8.7°C 43.7°F6.5°C 86% 8.7 mph WSW14.0 kmh WSW 10.7 mph17.2 kmh 30.31 in1026.4 mb 0.00 in0.0 mm 0.00 in0.0 mm 0.00 in0.0 mm
07:25 AM 47.7°F8.7°C 43.8°F6.6°C 86% 8.6 mph WSW13.8 kmh WSW 11.4 mph18.3 kmh 30.31 in1026.4 mb 0.00 in0.0 mm 0.00 in0.0 mm 0.00 in0.0 mm
07:30 AM 47.8°F8.8°C 43.9°F6.6°C 86% 8.1 mph WSW13.0 kmh WSW 11.2 mph18.0 kmh 30.31 in1026.4 mb 0.00 in0.0 mm 0.00 in0.0 mm 0.00 in0.0 mm
07:35 AM 47.8°F8.8°C 43.9°F6.6°C 86% 8.2 mph WSW13.2 kmh WSW 13.0 mph20.9 kmh 30.31 in1026.4 mb 0.00 in0.0 mm 0.00 in0.0 mm 0.00 in0.0 mm
07:40 AM 48.0°F8.9°C 44.0°F6.7°C 86% 8.7 mph WSW14.0 kmh WSW 11.9 mph19.2 kmh 30.31 in1026.4 mb 0.00 in0.0 mm 0.00 in0.0 mm 0.00 in0.0 mm
07:45 AM 48.0°F8.9°C 43.7°F6.5°C 85% 8.7 mph WSW14.0 kmh WSW 12.5 mph20.1 kmh 30.32 in1026.8 mb 0.00 in0.0 mm 0.00 in0.0 mm 0.00 in0.0 mm
07:50 AM 48.2°F9.0°C 43.9°F6.6°C 85% 8.5 mph WSW13.7 kmh WSW 13.0 mph20.9 kmh 30.32 in1026.8 mb 0.00 in0.0 mm 0.00 in0.0 mm 0.00 in0.0 mm
07:55 AM 48.3°F9.1°C 44.0°F6.7°C 85% 8.5 mph WSW13.7 kmh WSW 10.1 mph16.3 kmh 30.32 in1026.8 mb 0.00 in0.0 mm 0.00 in0.0 mm 0.00 in0.0 mm
08:00 AM 48.4°F9.1°C 44.1°F6.7°C 85% 8.5 mph WSW13.7 kmh WSW 10.3 mph16.6 kmh 30.32 in1026.8 mb 0.00 in0.0 mm 0.00 in0.0 mm 0.00 in0.0 mm
08:05 AM 48.4°F9.1°C 44.1°F6.7°C 85% 8.2 mph WSW13.2 kmh WSW 11.9 mph19.2 kmh 30.32 in1026.8 mb 0.00 in0.0 mm 0.00 in0.0 mm 0.00 in0.0 mm
08:10 AM 48.4°F9.1°C 44.1°F6.7°C 85% 7.4 mph WSW11.9 kmh WSW 11.4 mph18.3 kmh 30.32 in1026.8 mb 0.00 in0.0 mm 0.00 in0.0 mm 0.00 in0.0 mm
08:15 AM 48.6°F9.2°C 44.0°F6.7°C 84% 7.4 mph WSW11.9 kmh WSW 9.2 mph14.8 kmh 30.32 in1026.8 mb 0.00 in0.0 mm 0.00 in0.0 mm 0.00 in0.0 mm
08:20 AM 48.6°F9.2°C 43.9°F6.6°C 84% 7.6 mph WSW12.2 kmh WSW 11.4 mph18.3 kmh 30.32 in1026.8 mb 0.00 in0.0 mm 0.00 in0.0 mm 0.00 in0.0 mm
08:25 AM 48.7°F9.3°C 44.1°F6.7°C 84% 7.8 mph WSW12.6 kmh WSW 11.9 mph19.2 kmh 30.32 in1026.8 mb 0.00 in0.0 mm 0.00 in0.0 mm 0.00 in0.0 mm
08:30 AM 48.7°F9.3°C 44.1°F6.7°C 84% 8.5 mph WSW13.7 kmh WSW 10.3 mph16.6 kmh 30.32 in1026.8 mb 0.00 in0.0 mm 0.00 in0.0 mm 0.00 in0.0 mm
08:35 AM 48.7°F9.3°C 44.1°F6.7°C 84% 8.4 mph WSW13.5 kmh WSW 11.4 mph18.3 kmh 30.32 in1026.8 mb 0.00 in0.0 mm 0.00 in0.0 mm 0.00 in0.0 mm
08:40 AM 48.7°F9.3°C 43.8°F6.6°C 83% 8.1 mph WSW13.0 kmh WSW 11.4 mph18.3 kmh 30.33 in1027.1 mb 0.00 in0.0 mm 0.00 in0.0 mm 0.00 in0.0 mm
08:45 AM 48.9°F9.4°C 44.0°F6.7°C 83% 8.1 mph WSW13.0 kmh WSW 11.2 mph18.0 kmh 30.33 in1027.1 mb 0.00 in0.0 mm 0.00 in0.0 mm 0.00 in0.0 mm
08:50 AM 48.9°F9.4°C 44.0°F6.7°C 83% 8.1 mph WSW13.0 kmh WSW 10.7 mph17.2 kmh 30.33 in1027.1 mb 0.00 in0.0 mm 0.00 in0.0 mm 0.00 in0.0 mm
08:55 AM 48.9°F9.4°C 44.0°F6.7°C 83% 8.1 mph WSW13.0 kmh WSW 10.7 mph17.2 kmh 30.33 in1027.1 mb 0.00 in0.0 mm 0.00 in0.0 mm 0.00 in0.0 mm
09:00 AM 49.1°F9.5°C 44.2°F6.8°C 83% 8.1 mph WSW13.0 kmh WSW 11.4 mph18.3 kmh 30.34 in1027.4 mb 0.00 in0.0 mm 0.00 in0.0 mm 0.00 in0.0 mm
09:05 AM 49.3°F9.6°C 44.3°F6.8°C 83% 8.2 mph WSW13.2 kmh WSW 11.4 mph18.3 kmh 30.34 in1027.4 mb 0.00 in0.0 mm 0.00 in0.0 mm 0.00 in0.0 mm
09:10 AM 49.4°F9.7°C 44.2°F6.8°C 82% 8.5 mph WSW13.7 kmh WSW 10.3 mph16.6 kmh 30.34 in1027.4 mb 0.00 in0.0 mm 0.00 in0.0 mm 0.00 in0.0 mm
09:15 AM 49.6°F9.8°C 44.3°F6.8°C 82% 8.3 mph WSW13.4 kmh WSW 10.3 mph16.6 kmh 30.34 in1027.4 mb 0.00 in0.0 mm 0.00 in0.0 mm 0.00 in0.0 mm
09:20 AM 49.7°F9.8°C 44.4°F6.9°C 82% 7.6 mph WSW12.2 kmh WSW 12.5 mph20.1 kmh 30.34 in1027.4 mb 0.00 in0.0 mm 0.00 in0.0 mm 0.00 in0.0 mm
09:25 AM 49.9°F9.9°C 44.6°F7.0°C 82% 7.6 mph WSW12.2 kmh WSW 11.2 mph18.0 kmh 30.34 in1027.4 mb 0.00 in0.0 mm 0.00 in0.0 mm 0.00 in0.0 mm
09:30 AM 50.2°F10.1°C 44.6°F7.0°C 81% 7.6 mph WSW12.2 kmh WSW 9.2 mph14.8 kmh 30.34 in1027.4 mb 0.00 in0.0 mm 0.00 in0.0 mm 0.00 in0.0 mm
09:35 AM 50.3°F10.2°C 44.7°F7.1°C 81% 7.5 mph WSW12.1 kmh WSW 10.1 mph16.3 kmh 30.34 in1027.4 mb 0.00 in0.0 mm 0.00 in0.0 mm 0.00 in0.0 mm
09:40 AM 50.5°F10.3°C 44.7°F7.1°C 80% 6.9 mph WSW11.1 kmh WSW 10.1 mph16.3 kmh 30.35 in1027.8 mb 0.00 in0.0 mm 0.00 in0.0 mm 0.00 in0.0 mm
09:45 AM 50.6°F10.3°C 44.7°F7.1°C 80% 7.1 mph WSW11.4 kmh WSW 10.3 mph16.6 kmh 30.35 in1027.8 mb 0.00 in0.0 mm 0.00 in0.0 mm 0.00 in0.0 mm
09:50 AM 50.8°F10.4°C 44.8°F7.1°C 80% 7.6 mph WSW12.2 kmh WSW 10.7 mph17.2 kmh 30.35 in1027.8 mb 0.00 in0.0 mm 0.00 in0.0 mm 0.00 in0.0 mm
09:55 AM 51.0°F10.6°C 44.8°F7.1°C 79% 7.6 mph WSW12.2 kmh WSW 11.4 mph18.3 kmh 30.35 in1027.8 mb 0.00 in0.0 mm 0.00 in0.0 mm 0.00 in0.0 mm
10:00 AM 51.2°F10.7°C 44.9°F7.2°C 79% 7.6 mph WSW12.2 kmh WSW 11.9 mph19.2 kmh 30.35 in1027.8 mb 0.00 in0.0 mm 0.00 in0.0 mm 0.00 in0.0 mm
10:05 AM 51.3°F10.7°C 45.1°F7.3°C 79% 7.6 mph WSW12.2 kmh WSW 9.2 mph14.8 kmh 30.35 in1027.8 mb 0.00 in0.0 mm 0.00 in0.0 mm 0.00 in0.0 mm
10:10 AM 51.5°F10.8°C 45.0°F7.2°C 78% 7.6 mph WSW12.2 kmh WSW 10.7 mph17.2 kmh 30.35 in1027.8 mb 0.00 in0.0 mm 0.00 in0.0 mm 0.00 in0.0 mm
10:15 AM 51.7°F10.9°C 45.1°F7.3°C 78% 7.3 mph WSW11.7 kmh WSW 8.5 mph13.7 kmh 30.35 in1027.8 mb 0.00 in0.0 mm 0.00 in0.0 mm 0.00 in0.0 mm
10:20 AM 52.0°F11.1°C 45.1°F7.3°C 77% 6.3 mph WSW10.1 kmh WSW 8.1 mph13.0 kmh 30.35 in1027.8 mb 0.00 in0.0 mm 0.00 in0.0 mm 0.00 in0.0 mm
10:25 AM 52.2°F11.2°C 45.2°F7.3°C 77% 6.2 mph WSW10.0 kmh WSW 8.1 mph13.0 kmh 30.35 in1027.8 mb 0.00 in0.0 mm 0.00 in0.0 mm 0.00 in0.0 mm
10:30 AM 52.3°F11.3°C 45.3°F7.4°C 77% 5.8 mph WSW9.3 kmh WSW 8.1 mph13.0 kmh 30.35 in1027.8 mb 0.00 in0.0 mm 0.00 in0.0 mm 0.00 in0.0 mm
10:35 AM 52.4°F11.3°C 45.0°F7.2°C 76% 5.7 mph WSW9.2 kmh WSW 8.1 mph13.0 kmh 30.35 in1027.8 mb 0.00 in0.0 mm 0.00 in0.0 mm 0.00 in0.0 mm
10:40 AM 52.5°F11.4°C 45.2°F7.3°C 76% 5.1 mph WSW8.2 kmh WSW 7.4 mph11.9 kmh 30.35 in1027.8 mb 0.00 in0.0 mm 0.00 in0.0 mm 0.00 in0.0 mm
10:45 AM 52.6°F11.4°C 45.3°F7.4°C 76% 5.2 mph WSW8.4 kmh WSW 7.6 mph12.2 kmh 30.35 in1027.8 mb 0.00 in0.0 mm 0.00 in0.0 mm 0.00 in0.0 mm
10:50 AM 52.8°F11.6°C 45.4°F7.4°C 76% 5.4 mph WSW8.7 kmh WSW 8.1 mph13.0 kmh 30.35 in1027.8 mb 0.00 in0.0 mm 0.00 in0.0 mm 0.00 in0.0 mm
10:55 AM 52.9°F11.6°C 45.2°F7.3°C 75% 5.5 mph WSW8.9 kmh WSW 8.5 mph13.7 kmh 30.35 in1027.8 mb 0.00 in0.0 mm 0.00 in0.0 mm 0.00 in0.0 mm
11:00 AM 53.0°F11.7°C 45.3°F7.4°C 75% 5.8 mph WSW9.3 kmh WSW 6.5 mph10.5 kmh 30.35 in1027.8 mb 0.00 in0.0 mm 0.00 in0.0 mm 0.00 in0.0 mm
11:05 AM 53.2°F11.8°C 45.5°F7.5°C 75% 5.6 mph WSW9.0 kmh WSW 6.9 mph11.1 kmh 30.35 in1027.8 mb 0.00 in0.0 mm 0.00 in0.0 mm 0.00 in0.0 mm
11:10 AM 53.3°F11.8°C 45.6°F7.6°C 75% 4.7 mph WSW7.6 kmh WSW 6.9 mph11.1 kmh 30.35 in1027.8 mb 0.00 in0.0 mm 0.00 in0.0 mm 0.00 in0.0 mm
11:15 AM 53.6°F12.0°C 45.8°F7.7°C 75% 4.7 mph WSW7.6 kmh WSW 8.1 mph13.0 kmh 30.35 in1027.8 mb 0.00 in0.0 mm 0.00 in0.0 mm 0.00 in0.0 mm
11:20 AM 53.9°F12.2°C 45.8°F7.7°C 74% 4.7 mph WSW7.6 kmh WSW 8.5 mph13.7 kmh 30.35 in1027.8 mb 0.00 in0.0 mm 0.00 in0.0 mm 0.00 in0.0 mm
11:25 AM 54.1°F12.3°C 46.0°F7.8°C 74% 4.8 mph WSW7.7 kmh WSW 6.3 mph10.1 kmh 30.35 in1027.8 mb 0.00 in0.0 mm 0.00 in0.0 mm 0.00 in0.0 mm
11:30 AM 54.4°F12.4°C 45.9°F7.7°C 73% 5.1 mph WSW8.2 kmh WSW 6.5 mph10.5 kmh 30.35 in1027.8 mb 0.00 in0.0 mm 0.00 in0.0 mm 0.00 in0.0 mm
11:35 AM 54.7°F12.6°C 46.2°F7.9°C 73% 4.9 mph WSW7.9 kmh WSW 5.4 mph8.7 kmh 30.35 in1027.8 mb 0.00 in0.0 mm 0.00 in0.0 mm 0.00 in0.0 mm
11:40 AM 55.0°F12.8°C 46.1°F7.8°C 72% 4.0 mph WSW6.4 kmh WSW 7.4 mph11.9 kmh 30.34 in1027.4 mb 0.00 in0.0 mm 0.00 in0.0 mm 0.00 in0.0 mm
11:45 AM 55.2°F12.9°C 46.3°F7.9°C 72% 4.1 mph WSW6.6 kmh WSW 5.4 mph8.7 kmh 30.34 in1027.4 mb 0.00 in0.0 mm 0.00 in0.0 mm 0.00 in0.0 mm
11:50 AM 55.5°F13.1°C 46.2°F7.9°C 71% 4.3 mph WSW6.9 kmh WSW 5.4 mph8.7 kmh 30.34 in1027.4 mb 0.00 in0.0 mm 0.00 in0.0 mm 0.00 in0.0 mm
11:55 AM 55.7°F13.2°C 46.5°F8.1°C 71% 4.2 mph WSW6.8 kmh WSW 6.5 mph10.5 kmh 30.34 in1027.4 mb 0.00 in0.0 mm 0.00 in0.0 mm 0.00 in0.0 mm
12:00 PM 56.0°F13.3°C 46.3°F7.9°C 70% 4.0 mph WSW6.4 kmh WSW 5.1 mph8.2 kmh 30.34 in1027.4 mb 0.00 in0.0 mm 0.00 in0.0 mm 0.00 in0.0 mm
12:05 PM 56.3°F13.5°C 46.6°F8.1°C 70% 3.8 mph WSW6.1 kmh WSW 4.0 mph6.4 kmh 30.34 in1027.4 mb 0.00 in0.0 mm 0.00 in0.0 mm 0.00 in0.0 mm
12:10 PM 56.6°F13.7°C 46.7°F8.2°C 69% 2.9 mph WSW4.7 kmh WSW 3.6 mph5.8 kmh 30.33 in1027.1 mb 0.00 in0.0 mm 0.00 in0.0 mm 0.00 in0.0 mm
12:15 PM 56.9°F13.8°C 46.8°F8.2°C 69% 2.7 mph WSW4.3 kmh WSW 2.9 mph4.7 kmh 30.33 in1027.1 mb 0.00 in0.0 mm 0.00 in0.0 mm 0.00 in0.0 mm
12:20 PM 57.2°F14.0°C 46.8°F8.2°C 68% 1.8 mph WSW2.9 kmh WSW 3.6 mph5.8 kmh 30.33 in1027.1 mb 0.00 in0.0 mm 0.00 in0.0 mm 0.00 in0.0 mm
12:25 PM 57.6°F14.2°C 46.8°F8.2°C 67% 2.0 mph WSW3.2 kmh WSW 6.3 mph10.1 kmh 30.33 in1027.1 mb 0.00 in0.0 mm 0.00 in0.0 mm 0.00 in0.0 mm
12:30 PM 57.9°F14.4°C 46.7°F8.2°C 66% 2.9 mph WSW4.7 kmh WSW 6.5 mph10.5 kmh 30.32 in1026.8 mb 0.00 in0.0 mm 0.00 in0.0 mm 0.00 in0.0 mm
12:35 PM 58.2°F14.6°C 46.8°F8.2°C 66% 3.2 mph WSW5.1 kmh WSW 8.1 mph13.0 kmh 30.32 in1026.8 mb 0.00 in0.0 mm 0.00 in0.0 mm 0.00 in0.0 mm
12:40 PM 58.4°F14.7°C 46.6°F8.1°C 65% 4.3 mph SW6.9 kmh SW 9.6 mph15.4 kmh 30.32 in1026.8 mb 0.00 in0.0 mm 0.00 in0.0 mm 0.00 in0.0 mm
12:45 PM 58.5°F14.7°C 46.7°F8.2°C 65% 4.6 mph SW7.4 kmh SW 7.4 mph11.9 kmh 30.32 in1026.8 mb 0.00 in0.0 mm 0.00 in0.0 mm 0.00 in0.0 mm
12:50 PM 58.5°F14.7°C 46.7°F8.2°C 65% 5.8 mph SW9.3 kmh SW 6.9 mph11.1 kmh 30.32 in1026.8 mb 0.00 in0.0 mm 0.00 in0.0 mm 0.00 in0.0 mm
12:55 PM 58.5°F14.7°C 46.8°F8.2°C 65% 5.7 mph SW9.2 kmh SW 8.1 mph13.0 kmh 30.32 in1026.8 mb 0.00 in0.0 mm 0.00 in0.0 mm 0.00 in0.0 mm
01:00 PM 58.5°F14.7°C 46.8°F8.2°C 65% 5.4 mph SW8.7 kmh SW 6.3 mph10.1 kmh 30.32 in1026.8 mb 0.00 in0.0 mm 0.00 in0.0 mm 0.00 in0.0 mm
01:05 PM 58.6°F14.8°C 46.8°F8.2°C 65% 5.1 mph SW8.2 kmh SW 7.4 mph11.9 kmh 30.32 in1026.8 mb 0.00 in0.0 mm 0.00 in0.0 mm 0.00 in0.0 mm
01:10 PM 58.6°F14.8°C 46.8°F8.2°C 65% 4.3 mph SW6.9 kmh SW 9.2 mph14.8 kmh 30.31 in1026.4 mb 0.00 in0.0 mm 0.00 in0.0 mm 0.00 in0.0 mm
01:15 PM 58.6°F14.8°C 46.9°F8.3°C 65% 4.6 mph SW7.4 kmh SW 9.2 mph14.8 kmh 30.31 in1026.4 mb 0.00 in0.0 mm 0.00 in0.0 mm 0.00 in0.0 mm
01:20 PM 58.6°F14.8°C 46.8°F8.2°C 65% 5.8 mph SW9.3 kmh SW 6.9 mph11.1 kmh 30.31 in1026.4 mb 0.00 in0.0 mm 0.00 in0.0 mm 0.00 in0.0 mm
01:25 PM 58.8°F14.9°C 46.6°F8.1°C 64% 5.6 mph SW9.0 kmh SW 7.4 mph11.9 kmh 30.30 in1026.1 mb 0.00 in0.0 mm 0.00 in0.0 mm 0.00 in0.0 mm
01:30 PM 58.8°F14.9°C 46.4°F8.0°C 63% 4.7 mph SW7.6 kmh SW 8.1 mph13.0 kmh 30.30 in1026.1 mb 0.00 in0.0 mm 0.00 in0.0 mm 0.00 in0.0 mm
01:35 PM 58.7°F14.8°C 46.4°F8.0°C 64% 4.7 mph SW7.6 kmh SW 7.4 mph11.9 kmh 30.30 in1026.1 mb 0.00 in0.0 mm 0.00 in0.0 mm 0.00 in0.0 mm
01:40 PM 58.8°F14.9°C 46.7°F8.2°C 64% 4.7 mph SW7.6 kmh SW 4.7 mph7.6 kmh 30.30 in1026.1 mb 0.00 in0.0 mm 0.00 in0.0 mm 0.00 in0.0 mm
01:45 PM 58.8°F14.9°C 46.3°F7.9°C 63% 4.2 mph SSW6.8 kmh SSW 4.7 mph7.6 kmh 30.30 in1026.1 mb 0.00 in0.0 mm 0.00 in0.0 mm 0.00 in0.0 mm
01:50 PM 59.0°F15.0°C 46.4°F8.0°C 63% 2.5 mph SSE4.0 kmh SSE 3.1 mph5.0 kmh 30.30 in1026.1 mb 0.00 in0.0 mm 0.00 in0.0 mm 0.00 in0.0 mm
01:55 PM 59.2°F15.1°C 46.3°F7.9°C 62% 2.3 mph SSE3.7 kmh SSE 5.8 mph9.3 kmh 30.30 in1026.1 mb 0.00 in0.0 mm 0.00 in0.0 mm 0.00 in0.0 mm
02:00 PM 59.4°F15.2°C 46.3°F7.9°C 62% 1.8 mph SE2.9 kmh SE 6.5 mph10.5 kmh 30.30 in1026.1 mb 0.00 in0.0 mm 0.00 in0.0 mm 0.00 in0.0 mm
02:05 PM 59.4°F15.2°C 46.3°F7.9°C 62% 2.4 mph S3.9 kmh S 5.4 mph8.7 kmh 30.30 in1026.1 mb 0.00 in0.0 mm 0.00 in0.0 mm 0.00 in0.0 mm
02:10 PM 59.4°F15.2°C 46.4°F8.0°C 62% 4.3 mph SW6.9 kmh SW 5.1 mph8.2 kmh 30.30 in1026.1 mb 0.00 in0.0 mm 0.00 in0.0 mm 0.00 in0.0 mm
02:15 PM 59.2°F15.1°C 46.4°F8.0°C 62% 4.1 mph SSW6.6 kmh SSW 5.4 mph8.7 kmh 30.30 in1026.1 mb 0.00 in0.0 mm 0.00 in0.0 mm 0.00 in0.0 mm
02:20 PM 59.2°F15.1°C 46.6°F8.1°C 63% 3.6 mph S5.8 kmh S 5.8 mph9.3 kmh 30.30 in1026.1 mb 0.00 in0.0 mm 0.00 in0.0 mm 0.00 in0.0 mm
02:25 PM 59.2°F15.1°C 46.6°F8.1°C 63% 3.6 mph S5.8 kmh S 5.4 mph8.7 kmh 30.30 in1026.1 mb 0.00 in0.0 mm 0.00 in0.0 mm 0.00 in0.0 mm
02:30 PM 59.2°F15.1°C 46.6°F8.1°C 63% 3.6 mph S5.8 kmh S 4.7 mph7.6 kmh 30.30 in1026.1 mb 0.00 in0.0 mm 0.00 in0.0 mm 0.00 in0.0 mm
02:35 PM 59.2°F15.1°C 46.8°F8.2°C 64% 3.5 mph SSE5.6 kmh SSE 5.1 mph8.2 kmh 30.30 in1026.1 mb 0.00 in0.0 mm 0.00 in0.0 mm 0.00 in0.0 mm
02:40 PM 59.2°F15.1°C 47.4°F8.6°C 65% 3.1 mph SE5.0 kmh SE 6.9 mph11.1 kmh 30.30 in1026.1 mb 0.00 in0.0 mm 0.00 in0.0 mm 0.00 in0.0 mm
02:45 PM 59.1°F15.1°C 47.5°F8.6°C 65% 3.3 mph SE5.3 kmh SE 6.5 mph10.5 kmh 30.30 in1026.1 mb 0.00 in0.0 mm 0.00 in0.0 mm 0.00 in0.0 mm
02:50 PM 58.9°F14.9°C 48.0°F8.9°C 67% 4.0 mph SE6.4 kmh SE 6.3 mph10.1 kmh 30.30 in1026.1 mb 0.00 in0.0 mm 0.00 in0.0 mm 0.00 in0.0 mm
02:55 PM 58.8°F14.9°C 47.8°F8.8°C 67% 4.0 mph SE6.4 kmh SE 6.5 mph10.5 kmh 30.30 in1026.1 mb 0.00 in0.0 mm 0.00 in0.0 mm 0.00 in0.0 mm
03:00 PM 58.6°F14.8°C 47.9°F8.8°C 67% 4.0 mph ESE6.4 kmh ESE 4.7 mph7.6 kmh 30.30 in1026.1 mb 0.00 in0.0 mm 0.00 in0.0 mm 0.00 in0.0 mm
03:05 PM 58.8°F14.9°C 48.3°F9.1°C 68% 3.7 mph ESE6.0 kmh ESE 4.0 mph6.4 kmh 30.30 in1026.1 mb 0.00 in0.0 mm 0.00 in0.0 mm 0.00 in0.0 mm
03:10 PM 59.0°F15.0°C 48.4°F9.1°C 68% 2.5 mph SE4.0 kmh SE 5.8 mph9.3 kmh 30.30 in1026.1 mb 0.00 in0.0 mm 0.00 in0.0 mm 0.00 in0.0 mm
03:15 PM 58.9°F14.9°C 48.5°F9.2°C 68% 2.7 mph SE4.3 kmh SE 6.5 mph10.5 kmh 30.30 in1026.1 mb 0.00 in0.0 mm 0.00 in0.0 mm 0.00 in0.0 mm
03:20 PM 58.7°F14.8°C 48.5°F9.2°C 69% 3.6 mph ESE5.8 kmh ESE 5.8 mph9.3 kmh 30.30 in1026.1 mb 0.00 in0.0 mm 0.00 in0.0 mm 0.00 in0.0 mm
03:25 PM 58.6°F14.8°C 48.5°F9.2°C 69% 3.6 mph ESE5.8 kmh ESE 5.8 mph9.3 kmh 30.30 in1026.1 mb 0.00 in0.0 mm 0.00 in0.0 mm 0.00 in0.0 mm
03:30 PM 58.6°F14.8°C 48.5°F9.2°C 69% 3.6 mph SE5.8 kmh SE 5.1 mph8.2 kmh 30.30 in1026.1 mb 0.00 in0.0 mm 0.00 in0.0 mm 0.00 in0.0 mm
03:35 PM 58.5°F14.7°C 48.7°F9.3°C 70% 3.6 mph ESE5.8 kmh ESE 5.8 mph9.3 kmh 30.30 in1026.1 mb 0.00 in0.0 mm 0.00 in0.0 mm 0.00 in0.0 mm
03:40 PM 58.5°F14.7°C 48.5°F9.2°C 70% 3.6 mph E5.8 kmh E 5.8 mph9.3 kmh 30.31 in1026.4 mb 0.00 in0.0 mm 0.00 in0.0 mm 0.00 in0.0 mm
03:45 PM 58.5°F14.7°C 48.7°F9.3°C 70% 3.7 mph E6.0 kmh E 6.9 mph11.1 kmh 30.31 in1026.4 mb 0.00 in0.0 mm 0.00 in0.0 mm 0.00 in0.0 mm
03:50 PM 58.5°F14.7°C 48.7°F9.3°C 70% 4.3 mph ESE6.9 kmh ESE 6.5 mph10.5 kmh 30.31 in1026.4 mb 0.00 in0.0 mm 0.00 in0.0 mm 0.00 in0.0 mm
03:55 PM 58.5°F14.7°C 48.6°F9.2°C 70% 4.2 mph E6.8 kmh E 6.5 mph10.5 kmh 30.31 in1026.4 mb 0.00 in0.0 mm 0.00 in0.0 mm 0.00 in0.0 mm
04:00 PM 58.5°F14.7°C 48.3°F9.1°C 69% 4.0 mph E6.4 kmh E 6.3 mph10.1 kmh 30.31 in1026.4 mb 0.00 in0.0 mm 0.00 in0.0 mm 0.00 in0.0 mm
04:05 PM 58.5°F14.7°C 48.3°F9.1°C 69% 3.9 mph E6.3 kmh E 4.0 mph6.4 kmh 30.31 in1026.4 mb 0.00 in0.0 mm 0.00 in0.0 mm 0.00 in0.0 mm
04:10 PM 58.5°F14.7°C 48.3°F9.1°C 69% 3.6 mph E5.8 kmh E 5.4 mph8.7 kmh 30.31 in1026.4 mb 0.00 in0.0 mm 0.00 in0.0 mm 0.00 in0.0 mm
04:15 PM 58.5°F14.7°C 47.9°F8.8°C 68% 3.6 mph E5.8 kmh E 5.8 mph9.3 kmh 30.31 in1026.4 mb 0.00 in0.0 mm 0.00 in0.0 mm 0.00 in0.0 mm
04:20 PM 58.3°F14.6°C 47.4°F8.6°C 67% 3.6 mph E5.8 kmh E 8.1 mph13.0 kmh 30.31 in1026.4 mb 0.00 in0.0 mm 0.00 in0.0 mm 0.00 in0.0 mm
04:25 PM 58.3°F14.6°C 47.3°F8.5°C 67% 4.0 mph E6.4 kmh E 7.4 mph11.9 kmh 30.32 in1026.8 mb 0.00 in0.0 mm 0.00 in0.0 mm 0.00 in0.0 mm
04:30 PM 58.3°F14.6°C 47.4°F8.6°C 67% 5.4 mph ENE8.7 kmh ENE 6.9 mph11.1 kmh 30.32 in1026.8 mb 0.00 in0.0 mm 0.00 in0.0 mm 0.00 in0.0 mm
04:35 PM 58.3°F14.6°C 48.0°F8.9°C 68% 5.4 mph ENE8.7 kmh ENE 9.2 mph14.8 kmh 30.32 in1026.8 mb 0.00 in0.0 mm 0.00 in0.0 mm 0.00 in0.0 mm
04:40 PM 58.2°F14.6°C 48.1°F8.9°C 69% 5.4 mph ENE8.7 kmh ENE 9.6 mph15.4 kmh 30.32 in1026.8 mb 0.00 in0.0 mm 0.00 in0.0 mm 0.00 in0.0 mm
04:45 PM 57.9°F14.4°C 48.1°F8.9°C 70% 5.6 mph ENE9.0 kmh ENE 7.4 mph11.9 kmh 30.32 in1026.8 mb 0.00 in0.0 mm 0.00 in0.0 mm 0.00 in0.0 mm
04:50 PM 57.9°F14.4°C 48.3°F9.1°C 70% 6.3 mph ENE10.1 kmh ENE 6.3 mph10.1 kmh 30.32 in1026.8 mb 0.00 in0.0 mm 0.00 in0.0 mm 0.00 in0.0 mm
04:55 PM 57.9°F14.4°C 48.6°F9.2°C 71% 5.8 mph ENE9.3 kmh ENE 6.3 mph10.1 kmh 30.32 in1026.8 mb 0.00 in0.0 mm 0.00 in0.0 mm 0.00 in0.0 mm
05:00 PM 57.9°F14.4°C 48.6°F9.2°C 71% 4.3 mph ENE6.9 kmh ENE 6.3 mph10.1 kmh 30.32 in1026.8 mb 0.00 in0.0 mm 0.00 in0.0 mm 0.00 in0.0 mm
05:05 PM 57.9°F14.4°C 48.6°F9.2°C 71% 3.9 mph E6.3 kmh E 4.3 mph6.9 kmh 30.32 in1026.8 mb 0.00 in0.0 mm 0.00 in0.0 mm 0.00 in0.0 mm
05:10 PM 57.9°F14.4°C 48.6°F9.2°C 71% 2.9 mph ESE4.7 kmh ESE 2.9 mph4.7 kmh 30.32 in1026.8 mb 0.00 in0.0 mm 0.00 in0.0 mm 0.00 in0.0 mm
05:15 PM 57.9°F14.4°C 48.6°F9.2°C 71% 2.2 mph ESE3.5 kmh ESE 4.0 mph6.4 kmh 30.32 in1026.8 mb 0.00 in0.0 mm 0.00 in0.0 mm 0.00 in0.0 mm
05:20 PM 57.8°F14.3°C 48.8°F9.3°C 72% Calm Calm 4.0 mph6.4 kmh 30.32 in1026.8 mb 0.00 in0.0 mm 0.00 in0.0 mm 0.00 in0.0 mm
05:25 PM 57.7°F14.3°C 48.8°F9.3°C 72% 0.5 mph ENE0.8 kmh ENE 2.5 mph4.0 kmh 30.32 in1026.8 mb 0.00 in0.0 mm 0.00 in0.0 mm 0.00 in0.0 mm
05:30 PM 57.7°F14.3°C 48.8°F9.3°C 72% 2.0 mph ENE3.2 kmh ENE 2.0 mph3.2 kmh 30.32 in1026.8 mb 0.00 in0.0 mm 0.00 in0.0 mm 0.00 in0.0 mm
05:35 PM 57.6°F14.2°C 48.7°F9.3°C 72% 1.5 mph ENE2.4 kmh ENE 2.9 mph4.7 kmh 30.32 in1026.8 mb 0.00 in0.0 mm 0.00 in0.0 mm 0.00 in0.0 mm
05:40 PM 57.6°F14.2°C 48.6°F9.2°C 72% Calm Calm 3.1 mph5.0 kmh 30.32 in1026.8 mb 0.00 in0.0 mm 0.00 in0.0 mm 0.00 in0.0 mm
05:45 PM 57.6°F14.2°C 48.6°F9.2°C 72% 0.6 mph E1.0 kmh E 3.1 mph5.0 kmh 30.32 in1026.8 mb 0.00 in0.0 mm 0.00 in0.0 mm 0.00 in0.0 mm
05:50 PM 57.4°F14.1°C 48.5°F9.2°C 72% 2.5 mph E4.0 kmh E 3.1 mph5.0 kmh 30.32 in1026.8 mb 0.00 in0.0 mm 0.00 in0.0 mm 0.00 in0.0 mm
05:55 PM 57.4°F14.1°C 48.8°F9.3°C 73% 2.4 mph E3.9 kmh E 2.9 mph4.7 kmh 30.33 in1027.1 mb 0.00 in0.0 mm 0.00 in0.0 mm 0.00 in0.0 mm
06:00 PM 57.2°F14.0°C 48.7°F9.3°C 73% 2.0 mph E3.2 kmh E 2.5 mph4.0 kmh 30.33 in1027.1 mb 0.00 in0.0 mm 0.00 in0.0 mm 0.00 in0.0 mm
06:05 PM 57.2°F14.0°C 48.6°F9.2°C 73% 1.6 mph E2.6 kmh E 2.0 mph3.2 kmh 30.33 in1027.1 mb 0.00 in0.0 mm 0.00 in0.0 mm 0.00 in0.0 mm
06:10 PM 57.1°F13.9°C 48.6°F9.2°C 73% Calm Calm 3.1 mph5.0 kmh 30.33 in1027.1 mb 0.00 in0.0 mm 0.00 in0.0 mm 0.00 in0.0 mm
06:15 PM 57.0°F13.9°C 48.8°F9.3°C 74% 0.4 mph E0.6 kmh E 2.0 mph3.2 kmh 30.33 in1027.1 mb 0.00 in0.0 mm 0.00 in0.0 mm 0.00 in0.0 mm
06:20 PM 57.0°F13.9°C 48.8°F9.3°C 74% 1.8 mph E2.9 kmh E 1.8 mph2.9 kmh 30.33 in1027.1 mb 0.00 in0.0 mm 0.00 in0.0 mm 0.00 in0.0 mm
06:25 PM 57.0°F13.9°C 48.8°F9.3°C 74% 1.4 mph E2.3 kmh E 2.5 mph4.0 kmh 30.33 in1027.1 mb 0.00 in0.0 mm 0.00 in0.0 mm 0.00 in0.0 mm
06:30 PM 57.0°F13.9°C 48.8°F9.3°C 74% Calm Calm 2.5 mph4.0 kmh 30.33 in1027.1 mb 0.00 in0.0 mm 0.00 in0.0 mm 0.00 in0.0 mm
06:35 PM 57.0°F13.9°C 49.0°F9.4°C 75% 0.3 mph ENE0.5 kmh ENE 1.3 mph2.1 kmh 30.33 in1027.1 mb 0.00 in0.0 mm 0.00 in0.0 mm 0.00 in0.0 mm
06:40 PM 56.8°F13.8°C 49.0°F9.4°C 75% 1.3 mph ENE2.1 kmh ENE 1.3 mph2.1 kmh 30.34 in1027.4 mb 0.00 in0.0 mm 0.00 in0.0 mm 0.00 in0.0 mm
06:45 PM 56.8°F13.8°C 49.0°F9.4°C 75% 1.0 mph ENE1.6 kmh ENE 1.3 mph2.1 kmh 30.34 in1027.4 mb 0.00 in0.0 mm 0.00 in0.0 mm 0.00 in0.0 mm
06:50 PM 56.8°F13.8°C 49.0°F9.4°C 75% Calm Calm -- 30.34 in1027.4 mb 0.00 in0.0 mm 0.00 in0.0 mm 0.00 in0.0 mm
06:55 PM 56.8°F13.8°C 49.0°F9.4°C 75% Calm Calm -- 30.34 in1027.4 mb 0.00 in0.0 mm 0.00 in0.0 mm 0.00 in0.0 mm
07:00 PM 56.8°F13.8°C 49.0°F9.4°C 75% Calm Calm -- 30.34 in1027.4 mb 0.00 in0.0 mm 0.00 in0.0 mm 0.00 in0.0 mm
07:05 PM 56.8°F13.8°C 49.0°F9.4°C 75% Calm Calm -- 30.34 in1027.4 mb 0.00 in0.0 mm 0.00 in0.0 mm 0.00 in0.0 mm
07:10 PM 56.8°F13.8°C 49.2°F9.6°C 76% Calm Calm -- 30.34 in1027.4 mb 0.00 in0.0 mm 0.00 in0.0 mm 0.00 in0.0 mm
07:15 PM 56.8°F13.8°C 49.4°F9.7°C 76% Calm Calm -- 30.34 in1027.4 mb 0.00 in0.0 mm 0.00 in0.0 mm 0.00 in0.0 mm
07:20 PM 56.8°F13.8°C 49.3°F9.6°C 76% Calm Calm -- 30.34 in1027.4 mb 0.00 in0.0 mm 0.00 in0.0 mm 0.00 in0.0 mm
07:25 PM 56.7°F13.7°C 49.2°F9.6°C 76% Calm Calm -- 30.34 in1027.4 mb 0.00 in0.0 mm 0.00 in0.0 mm 0.00 in0.0 mm
07:30 PM 56.7°F13.7°C 49.2°F9.6°C 76% Calm Calm 3.6 mph5.8 kmh 30.34 in1027.4 mb 0.00 in0.0 mm 0.00 in0.0 mm 0.00 in0.0 mm
07:35 PM 56.7°F13.7°C 49.2°F9.6°C 76% 0.4 mph N0.6 kmh N 4.0 mph6.4 kmh 30.34 in1027.4 mb 0.00 in0.0 mm 0.00 in0.0 mm 0.00 in0.0 mm
07:40 PM 56.7°F13.7°C 49.2°F9.6°C 76% 1.8 mph N2.9 kmh N 3.6 mph5.8 kmh 30.35 in1027.8 mb 0.00 in0.0 mm 0.00 in0.0 mm 0.00 in0.0 mm
07:45 PM 56.7°F13.7°C 49.2°F9.6°C 76% 2.0 mph NNW3.2 kmh NNW 4.3 mph6.9 kmh 30.35 in1027.8 mb 0.00 in0.0 mm 0.00 in0.0 mm 0.00 in0.0 mm
07:50 PM 56.5°F13.6°C 49.1°F9.5°C 76% 2.9 mph NW4.7 kmh NW 4.0 mph6.4 kmh 30.35 in1027.8 mb 0.00 in0.0 mm 0.00 in0.0 mm 0.00 in0.0 mm
07:55 PM 56.5°F13.6°C 49.0°F9.4°C 76% 2.9 mph NW4.7 kmh NW 4.3 mph6.9 kmh 30.35 in1027.8 mb 0.00 in0.0 mm 0.00 in0.0 mm 0.00 in0.0 mm
08:00 PM 56.5°F13.6°C 49.0°F9.4°C 76% 2.9 mph NW4.7 kmh NW 4.7 mph7.6 kmh 30.35 in1027.8 mb 0.00 in0.0 mm 0.00 in0.0 mm 0.00 in0.0 mm
08:05 PM 56.3°F13.5°C 49.2°F9.6°C 77% 3.0 mph NW4.8 kmh NW 4.7 mph7.6 kmh 30.35 in1027.8 mb 0.00 in0.0 mm 0.00 in0.0 mm 0.00 in0.0 mm
08:10 PM 56.3°F13.5°C 49.2°F9.6°C 77% 3.1 mph NW5.0 kmh NW 4.7 mph7.6 kmh 30.35 in1027.8 mb 0.00 in0.0 mm 0.00 in0.0 mm 0.00 in0.0 mm
08:15 PM 56.2°F13.4°C 49.1°F9.5°C 77% 3.1 mph NW5.0 kmh NW 4.7 mph7.6 kmh 30.35 in1027.8 mb 0.00 in0.0 mm 0.00 in0.0 mm 0.00 in0.0 mm
08:20 PM 56.3°F13.5°C 49.1°F9.5°C 77% 3.1 mph NW5.0 kmh NW 5.4 mph8.7 kmh 30.35 in1027.8 mb 0.00 in0.0 mm 0.00 in0.0 mm 0.00 in0.0 mm
08:25 PM 56.1°F13.4°C 49.0°F9.4°C 77% 3.3 mph NW5.3 kmh NW 5.4 mph8.7 kmh 30.35 in1027.8 mb 0.00 in0.0 mm 0.00 in0.0 mm 0.00 in0.0 mm
08:30 PM 56.1°F13.4°C 49.0°F9.4°C 77% 4.0 mph NW6.4 kmh NW 5.4 mph8.7 kmh 30.35 in1027.8 mb 0.00 in0.0 mm 0.00 in0.0 mm 0.00 in0.0 mm
08:35 PM 56.1°F13.4°C 49.2°F9.6°C 78% 4.1 mph NNW6.6 kmh NNW 5.1 mph8.2 kmh 30.35 in1027.8 mb 0.00 in0.0 mm 0.00 in0.0 mm 0.00 in0.0 mm
08:40 PM 55.9°F13.3°C 49.2°F9.6°C 78% 4.3 mph NNW6.9 kmh NNW 5.8 mph9.3 kmh 30.35 in1027.8 mb 0.00 in0.0 mm 0.00 in0.0 mm 0.00 in0.0 mm
08:45 PM 56.1°F13.4°C 49.3°F9.6°C 78% 4.1 mph NNW6.6 kmh NNW 5.1 mph8.2 kmh 30.35 in1027.8 mb 0.00 in0.0 mm 0.00 in0.0 mm 0.00 in0.0 mm
08:50 PM 56.1°F13.4°C 49.3°F9.6°C 78% 3.6 mph N5.8 kmh N 4.7 mph7.6 kmh 30.35 in1027.8 mb 0.00 in0.0 mm 0.00 in0.0 mm 0.00 in0.0 mm
08:55 PM 56.1°F13.4°C 49.4°F9.7°C 78% 3.6 mph N5.8 kmh N 4.7 mph7.6 kmh 30.35 in1027.8 mb 0.00 in0.0 mm 0.00 in0.0 mm 0.00 in0.0 mm
09:00 PM 56.1°F13.4°C 49.4°F9.7°C 78% 3.6 mph NNW5.8 kmh NNW 5.4 mph8.7 kmh 30.35 in1027.8 mb 0.00 in0.0 mm 0.00 in0.0 mm 0.00 in0.0 mm
09:05 PM 56.1°F13.4°C 49.7°F9.8°C 79% 3.5 mph NNW5.6 kmh NNW 4.7 mph7.6 kmh 30.35 in1027.8 mb 0.00 in0.0 mm 0.00 in0.0 mm 0.00 in0.0 mm
09:10 PM 56.1°F13.4°C 49.7°F9.8°C 79% 3.1 mph N5.0 kmh N 4.7 mph7.6 kmh 30.35 in1027.8 mb 0.00 in0.0 mm 0.00 in0.0 mm 0.00 in0.0 mm
09:15 PM 56.2°F13.4°C 49.6°F9.8°C 79% 3.1 mph NNW5.0 kmh NNW 4.7 mph7.6 kmh 30.35 in1027.8 mb 0.00 in0.0 mm 0.00 in0.0 mm 0.00 in0.0 mm
09:20 PM 56.1°F13.4°C 49.4°F9.7°C 78% 3.1 mph NW5.0 kmh NW 5.1 mph8.2 kmh 30.35 in1027.8 mb 0.00 in0.0 mm 0.00 in0.0 mm 0.00 in0.0 mm
09:25 PM 56.1°F13.4°C 49.3°F9.6°C 78% 3.1 mph NW5.0 kmh NW 4.0 mph6.4 kmh 30.35 in1027.8 mb 0.00 in0.0 mm 0.00 in0.0 mm 0.00 in0.0 mm
09:30 PM 55.9°F13.3°C 49.2°F9.6°C 78% 3.1 mph WNW5.0 kmh WNW 3.6 mph5.8 kmh 30.35 in1027.8 mb 0.00 in0.0 mm 0.00 in0.0 mm 0.00 in0.0 mm
09:35 PM 55.9°F13.3°C 49.1°F9.5°C 78% 3.1 mph W5.0 kmh W 4.3 mph6.9 kmh 30.35 in1027.8 mb 0.00 in0.0 mm 0.00 in0.0 mm 0.00 in0.0 mm
09:40 PM 55.8°F13.2°C 49.0°F9.4°C 78% 2.9 mph WSW4.7 kmh WSW 4.0 mph6.4 kmh 30.35 in1027.8 mb 0.00 in0.0 mm 0.00 in0.0 mm 0.00 in0.0 mm
09:45 PM 55.6°F13.1°C 48.9°F9.4°C 78% 2.9 mph WSW4.7 kmh WSW 4.0 mph6.4 kmh 30.35 in1027.8 mb 0.00 in0.0 mm 0.00 in0.0 mm 0.00 in0.0 mm
09:50 PM 55.6°F13.1°C 48.8°F9.3°C 78% 2.9 mph WSW4.7 kmh WSW 4.3 mph6.9 kmh 30.35 in1027.8 mb 0.00 in0.0 mm 0.00 in0.0 mm 0.00 in0.0 mm
09:55 PM 55.4°F13.0°C 48.7°F9.3°C 78% 2.8 mph WSW4.5 kmh WSW 3.1 mph5.0 kmh 30.35 in1027.8 mb 0.00 in0.0 mm 0.00 in0.0 mm 0.00 in0.0 mm
10:00 PM 55.3°F12.9°C 48.6°F9.2°C 78% 2.5 mph WSW4.0 kmh WSW 2.9 mph4.7 kmh 30.35 in1027.8 mb 0.00 in0.0 mm 0.00 in0.0 mm 0.00 in0.0 mm
10:05 PM 55.3°F12.9°C 48.7°F9.3°C 79% 2.3 mph WSW3.7 kmh WSW 3.1 mph5.0 kmh 30.35 in1027.8 mb 0.00 in0.0 mm 0.00 in0.0 mm 0.00 in0.0 mm
10:10 PM 55.3°F12.9°C 48.9°F9.4°C 79% 1.8 mph W2.9 kmh W 3.1 mph5.0 kmh 30.35 in1027.8 mb 0.00 in0.0 mm 0.00 in0.0 mm 0.00 in0.0 mm
10:15 PM 55.4°F13.0°C 48.8°F9.3°C 78% 1.9 mph WNW3.1 kmh WNW 3.6 mph5.8 kmh 30.35 in1027.8 mb 0.00 in0.0 mm 0.00 in0.0 mm 0.00 in0.0 mm
10:20 PM 55.4°F13.0°C 48.6°F9.2°C 78% 2.5 mph NW4.0 kmh NW 4.3 mph6.9 kmh 30.35 in1027.8 mb 0.00 in0.0 mm 0.00 in0.0 mm 0.00 in0.0 mm
10:25 PM 55.2°F12.9°C 48.5°F9.2°C 78% 2.7 mph NW4.3 kmh NW 5.1 mph8.2 kmh 30.35 in1027.8 mb 0.00 in0.0 mm 0.00 in0.0 mm 0.00 in0.0 mm
10:30 PM 55.2°F12.9°C 48.5°F9.2°C 78% 3.6 mph W5.8 kmh W 5.1 mph8.2 kmh 30.35 in1027.8 mb 0.00 in0.0 mm 0.00 in0.0 mm 0.00 in0.0 mm
10:35 PM 55.2°F12.9°C 48.5°F9.2°C 78% 3.7 mph W6.0 kmh W 4.7 mph7.6 kmh 30.35 in1027.8 mb 0.00 in0.0 mm 0.00 in0.0 mm 0.00 in0.0 mm
10:40 PM 55.1°F12.8°C 48.6°F9.2°C 79% 4.0 mph W6.4 kmh W 4.0 mph6.4 kmh 30.35 in1027.8 mb 0.00 in0.0 mm 0.00 in0.0 mm 0.00 in0.0 mm
10:45 PM 55.0°F12.8°C 48.6°F9.2°C 79% 3.8 mph W6.1 kmh W 4.3 mph6.9 kmh 30.35 in1027.8 mb 0.00 in0.0 mm 0.00 in0.0 mm 0.00 in0.0 mm
10:50 PM 55.0°F12.8°C 48.6°F9.2°C 79% 3.1 mph W5.0 kmh W 4.3 mph6.9 kmh 30.35 in1027.8 mb 0.00 in0.0 mm 0.00 in0.0 mm 0.00 in0.0 mm
10:55 PM 55.0°F12.8°C 48.6°F9.2°C 79% 3.1 mph W5.0 kmh W 4.3 mph6.9 kmh 30.35 in1027.8 mb 0.00 in0.0 mm 0.00 in0.0 mm 0.00 in0.0 mm
11:00 PM 55.0°F12.8°C 48.5°F9.2°C 79% 3.1 mph W5.0 kmh W 5.1 mph8.2 kmh 30.35 in1027.8 mb 0.00 in0.0 mm 0.00 in0.0 mm 0.00 in0.0 mm
11:05 PM 55.0°F12.8°C 48.3°F9.1°C 78% 3.3 mph W5.3 kmh W 5.4 mph8.7 kmh 30.35 in1027.8 mb 0.00 in0.0 mm 0.00 in0.0 mm 0.00 in0.0 mm
11:10 PM 55.0°F12.8°C 48.3°F9.1°C 78% 4.0 mph WSW6.4 kmh WSW 5.8 mph9.3 kmh 30.35 in1027.8 mb 0.00 in0.0 mm 0.00 in0.0 mm 0.00 in0.0 mm
11:15 PM 55.0°F12.8°C 48.0°F8.9°C 77% 4.1 mph W6.6 kmh W 5.8 mph9.3 kmh 30.35 in1027.8 mb 0.00 in0.0 mm 0.00 in0.0 mm 0.00 in0.0 mm
11:20 PM 54.9°F12.7°C 47.8°F8.8°C 77% 4.3 mph W6.9 kmh W 6.5 mph10.5 kmh 30.35 in1027.8 mb 0.00 in0.0 mm 0.00 in0.0 mm 0.00 in0.0 mm
11:25 PM 54.9°F12.7°C 47.8°F8.8°C 77% 4.5 mph W7.2 kmh W 6.9 mph11.1 kmh 30.35 in1027.8 mb 0.00 in0.0 mm 0.00 in0.0 mm 0.00 in0.0 mm
11:30 PM 54.9°F12.7°C 47.8°F8.8°C 77% 5.1 mph W8.2 kmh W 6.3 mph10.1 kmh 30.35 in1027.8 mb 0.00 in0.0 mm 0.00 in0.0 mm 0.00 in0.0 mm
11:35 PM 54.9°F12.7°C 47.8°F8.8°C 77% 5.0 mph W8.0 kmh W 6.3 mph10.1 kmh 30.35 in1027.8 mb 0.00 in0.0 mm 0.00 in0.0 mm 0.00 in0.0 mm
11:40 PM 54.9°F12.7°C 47.8°F8.8°C 77% 4.7 mph W7.6 kmh W 5.4 mph8.7 kmh 30.35 in1027.8 mb 0.00 in0.0 mm 0.00 in0.0 mm 0.00 in0.0 mm
11:45 PM 54.9°F12.7°C 47.4°F8.6°C 76% 4.6 mph W7.4 kmh W 6.3 mph10.1 kmh 30.35 in1027.8 mb 0.00 in0.0 mm 0.00 in0.0 mm 0.00 in0.0 mm
11:50 PM 54.9°F12.7°C 47.4°F8.6°C 76% 4.3 mph W6.9 kmh W 6.3 mph10.1 kmh 30.35 in1027.8 mb 0.00 in0.0 mm 0.00 in0.0 mm 0.00 in0.0 mm
11:55 PM 54.7°F12.6°C 47.3°F8.5°C 76% 4.5 mph W7.2 kmh W 7.4 mph11.9 kmh 30.35 in1027.8 mb 0.00 in0.0 mm 0.00 in0.0 mm 0.00 in0.0 mm